sensor_id;sensor_type;location;lat;lon;timestamp;temperature;humidity
21582;DHT22;10952;50.836;4.348;2022-08-07T00:01:40;18.70;98.80
21582;DHT22;10952;50.836;4.348;2022-08-07T00:04:06;18.80;98.90
21582;DHT22;10952;50.836;4.348;2022-08-07T00:06:32;18.70;99.20
21582;DHT22;10952;50.836;4.348;2022-08-07T00:08:57;18.60;99.60
21582;DHT22;10952;50.836;4.348;2022-08-07T00:11:23;18.60;99.90
21582;DHT22;10952;50.836;4.348;2022-08-07T00:13:49;18.50;99.90
21582;DHT22;10952;50.836;4.348;2022-08-07T00:16:14;18.50;99.90
21582;DHT22;10952;50.836;4.348;2022-08-07T00:18:40;18.40;99.90
21582;DHT22;10952;50.836;4.348;2022-08-07T00:21:08;18.40;99.90
21582;DHT22;10952;50.836;4.348;2022-08-07T00:23:35;18.40;99.90
21582;DHT22;10952;50.836;4.348;2022-08-07T00:26:04;18.30;99.90
21582;DHT22;10952;50.836;4.348;2022-08-07T00:28:31;18.30;99.90
21582;DHT22;10952;50.836;4.348;2022-08-07T00:30:56;18.40;99.90
21582;DHT22;10952;50.836;4.348;2022-08-07T00:33:22;18.40;99.90
21582;DHT22;10952;50.836;4.348;2022-08-07T00:35:55;18.30;99.90
21582;DHT22;10952;50.836;4.348;2022-08-07T00:38:21;18.20;99.90
21582;DHT22;10952;50.836;4.348;2022-08-07T00:40:48;18.40;99.90
21582;DHT22;10952;50.836;4.348;2022-08-07T00:43:14;18.40;99.90
21582;DHT22;10952;50.836;4.348;2022-08-07T00:45:40;18.30;99.90
21582;DHT22;10952;50.836;4.348;2022-08-07T00:48:07;18.30;99.90
21582;DHT22;10952;50.836;4.348;2022-08-07T00:50:34;18.20;99.90
21582;DHT22;10952;50.836;4.348;2022-08-07T00:53:00;18.30;99.90
21582;DHT22;10952;50.836;4.348;2022-08-07T00:55:26;18.30;99.90
21582;DHT22;10952;50.836;4.348;2022-08-07T00:57:53;18.20;99.90
21582;DHT22;10952;50.836;4.348;2022-08-07T01:00:19;18.30;99.90
21582;DHT22;10952;50.836;4.348;2022-08-07T01:02:45;18.30;99.90
21582;DHT22;10952;50.836;4.348;2022-08-07T01:05:11;18.20;99.90
21582;DHT22;10952;50.836;4.348;2022-08-07T01:07:38;18.20;99.90
21582;DHT22;10952;50.836;4.348;2022-08-07T01:10:05;18.20;99.90
21582;DHT22;10952;50.836;4.348;2022-08-07T01:12:31;18.10;99.90
21582;DHT22;10952;50.836;4.348;2022-08-07T01:14:57;18.10;99.90
21582;DHT22;10952;50.836;4.348;2022-08-07T01:17:24;18.10;99.90
21582;DHT22;10952;50.836;4.348;2022-08-07T01:19:52;18.00;99.90
21582;DHT22;10952;50.836;4.348;2022-08-07T01:22:19;18.00;99.90
21582;DHT22;10952;50.836;4.348;2022-08-07T01:24:46;18.00;99.90
21582;DHT22;10952;50.836;4.348;2022-08-07T01:27:12;18.00;99.90
21582;DHT22;10952;50.836;4.348;2022-08-07T01:29:38;18.00;99.90
21582;DHT22;10952;50.836;4.348;2022-08-07T01:32:04;17.90;99.90
21582;DHT22;10952;50.836;4.348;2022-08-07T01:34:31;17.90;99.90
21582;DHT22;10952;50.836;4.348;2022-08-07T01:36:57;17.90;99.90
21582;DHT22;10952;50.836;4.348;2022-08-07T01:39:27;18.00;99.90
21582;DHT22;10952;50.836;4.348;2022-08-07T01:41:53;18.10;99.90
21582;DHT22;10952;50.836;4.348;2022-08-07T01:44:19;18.00;99.90
21582;DHT22;10952;50.836;4.348;2022-08-07T01:46:45;18.00;99.90
21582;DHT22;10952;50.836;4.348;2022-08-07T01:49:11;17.90;99.90
21582;DHT22;10952;50.836;4.348;2022-08-07T01:51:39;17.80;99.90
21582;DHT22;10952;50.836;4.348;2022-08-07T01:54:08;17.80;99.90
21582;DHT22;10952;50.836;4.348;2022-08-07T01:56:59;17.70;99.90
21582;DHT22;10952;50.836;4.348;2022-08-07T01:59:31;17.70;99.90
21582;DHT22;10952;50.836;4.348;2022-08-07T02:02:10;17.70;99.90
21582;DHT22;10952;50.836;4.348;2022-08-07T02:04:49;17.70;99.90
21582;DHT22;10952;50.836;4.348;2022-08-07T02:07:19;17.70;99.90
21582;DHT22;10952;50.836;4.348;2022-08-07T02:09:48;17.70;99.90
21582;DHT22;10952;50.836;4.348;2022-08-07T02:12:16;17.70;99.90
21582;DHT22;10952;50.836;4.348;2022-08-07T02:14:48;17.70;99.90
21582;DHT22;10952;50.836;4.348;2022-08-07T02:17:15;17.80;99.90
21582;DHT22;10952;50.836;4.348;2022-08-07T02:19:43;17.80;99.90
21582;DHT22;10952;50.836;4.348;2022-08-07T02:22:11;17.80;99.90
21582;DHT22;10952;50.836;4.348;2022-08-07T02:24:40;17.80;99.90
21582;DHT22;10952;50.836;4.348;2022-08-07T02:27:06;17.80;99.90
21582;DHT22;10952;50.836;4.348;2022-08-07T02:29:34;17.70;99.90
21582;DHT22;10952;50.836;4.348;2022-08-07T02:32:01;17.60;99.90
21582;DHT22;10952;50.836;4.348;2022-08-07T02:34:29;17.50;99.90
21582;DHT22;10952;50.836;4.348;2022-08-07T02:36:56;17.50;99.90
21582;DHT22;10952;50.836;4.348;2022-08-07T02:39:23;17.60;99.90
21582;DHT22;10952;50.836;4.348;2022-08-07T02:41:50;17.60;99.90
21582;DHT22;10952;50.836;4.348;2022-08-07T02:44:17;17.60;99.90
21582;DHT22;10952;50.836;4.348;2022-08-07T02:46:45;17.70;99.90
21582;DHT22;10952;50.836;4.348;2022-08-07T02:49:12;17.80;99.90
21582;DHT22;10952;50.836;4.348;2022-08-07T02:51:39;17.70;99.90
21582;DHT22;10952;50.836;4.348;2022-08-07T02:54:07;17.60;99.90
21582;DHT22;10952;50.836;4.348;2022-08-07T02:56:36;17.70;99.90
21582;DHT22;10952;50.836;4.348;2022-08-07T02:59:04;17.60;99.90
21582;DHT22;10952;50.836;4.348;2022-08-07T03:01:38;17.60;99.90
21582;DHT22;10952;50.836;4.348;2022-08-07T03:04:08;17.50;99.90
21582;DHT22;10952;50.836;4.348;2022-08-07T03:06:34;17.60;99.90
21582;DHT22;10952;50.836;4.348;2022-08-07T03:09:05;17.50;99.90
21582;DHT22;10952;50.836;4.348;2022-08-07T03:11:33;17.50;99.90
21582;DHT22;10952;50.836;4.348;2022-08-07T03:14:02;17.50;99.90
21582;DHT22;10952;50.836;4.348;2022-08-07T03:16:32;17.60;99.90
21582;DHT22;10952;50.836;4.348;2022-08-07T03:18:58;17.60;99.90
21582;DHT22;10952;50.836;4.348;2022-08-07T03:21:25;17.50;99.90
21582;DHT22;10952;50.836;4.348;2022-08-07T03:23:56;17.40;99.90
21582;DHT22;10952;50.836;4.348;2022-08-07T03:26:27;17.50;99.90
21582;DHT22;10952;50.836;4.348;2022-08-07T03:28:54;17.30;99.90
21582;DHT22;10952;50.836;4.348;2022-08-07T03:31:21;17.30;99.90
21582;DHT22;10952;50.836;4.348;2022-08-07T03:33:50;17.30;99.90
21582;DHT22;10952;50.836;4.348;2022-08-07T03:36:19;17.20;99.90
21582;DHT22;10952;50.836;4.348;2022-08-07T03:38:46;17.30;99.90
21582;DHT22;10952;50.836;4.348;2022-08-07T03:41:14;17.40;99.90
21582;DHT22;10952;50.836;4.348;2022-08-07T03:43:40;17.40;99.90
21582;DHT22;10952;50.836;4.348;2022-08-07T03:46:06;17.30;99.90
21582;DHT22;10952;50.836;4.348;2022-08-07T03:48:33;17.30;99.90
21582;DHT22;10952;50.836;4.348;2022-08-07T03:51:01;17.20;99.90
21582;DHT22;10952;50.836;4.348;2022-08-07T03:53:27;17.20;99.90
21582;DHT22;10952;50.836;4.348;2022-08-07T03:55:54;17.30;99.90
21582;DHT22;10952;50.836;4.348;2022-08-07T03:58:20;17.20;99.90
21582;DHT22;10952;50.836;4.348;2022-08-07T04:00:52;17.20;99.90
21582;DHT22;10952;50.836;4.348;2022-08-07T04:03:18;17.30;99.90
21582;DHT22;10952;50.836;4.348;2022-08-07T04:05:44;17.30;99.90
21582;DHT22;10952;50.836;4.348;2022-08-07T04:08:11;17.20;99.90
21582;DHT22;10952;50.836;4.348;2022-08-07T04:10:39;17.20;99.90
21582;DHT22;10952;50.836;4.348;2022-08-07T04:13:05;17.20;99.90
21582;DHT22;10952;50.836;4.348;2022-08-07T04:15:32;17.30;99.90
21582;DHT22;10952;50.836;4.348;2022-08-07T04:18:00;17.30;99.90
21582;DHT22;10952;50.836;4.348;2022-08-07T04:20:26;17.20;99.90
21582;DHT22;10952;50.836;4.348;2022-08-07T04:22:52;17.00;99.90
21582;DHT22;10952;50.836;4.348;2022-08-07T04:25:18;17.20;99.90
21582;DHT22;10952;50.836;4.348;2022-08-07T04:27:45;17.00;99.90
21582;DHT22;10952;50.836;4.348;2022-08-07T04:30:11;16.80;99.90
21582;DHT22;10952;50.836;4.348;2022-08-07T04:32:37;16.80;99.90
21582;DHT22;10952;50.836;4.348;2022-08-07T04:35:04;16.80;99.90
21582;DHT22;10952;50.836;4.348;2022-08-07T04:37:31;16.80;99.90
21582;DHT22;10952;50.836;4.348;2022-08-07T04:39:57;16.80;99.90
21582;DHT22;10952;50.836;4.348;2022-08-07T04:42:23;16.80;99.90
21582;DHT22;10952;50.836;4.348;2022-08-07T04:44:56;16.70;99.90
21582;DHT22;10952;50.836;4.348;2022-08-07T04:52:52;16.80;99.90
21582;DHT22;10952;50.836;4.348;2022-08-07T05:03:49;16.80;99.90
21582;DHT22;10952;50.836;4.348;2022-08-07T05:06:39;16.70;99.90
21582;DHT22;10952;50.836;4.348;2022-08-07T05:12:07;16.70;99.90
21582;DHT22;10952;50.836;4.348;2022-08-07T05:14:41;16.90;99.90
21582;DHT22;10952;50.836;4.348;2022-08-07T05:17:11;17.00;99.90
21582;DHT22;10952;50.836;4.348;2022-08-07T05:19:41;17.00;99.90
21582;DHT22;10952;50.836;4.348;2022-08-07T05:22:08;17.00;99.90
21582;DHT22;10952;50.836;4.348;2022-08-07T05:24:36;17.00;99.90
21582;DHT22;10952;50.836;4.348;2022-08-07T05:27:04;17.00;99.90
21582;DHT22;10952;50.836;4.348;2022-08-07T05:29:34;17.00;99.90
21582;DHT22;10952;50.836;4.348;2022-08-07T05:32:07;17.10;99.90
21582;DHT22;10952;50.836;4.348;2022-08-07T05:34:35;16.90;99.90
21582;DHT22;10952;50.836;4.348;2022-08-07T05:37:01;16.90;99.90
21582;DHT22;10952;50.836;4.348;2022-08-07T05:39:28;16.90;99.90
21582;DHT22;10952;50.836;4.348;2022-08-07T05:41:54;16.90;99.90
21582;DHT22;10952;50.836;4.348;2022-08-07T05:44:21;16.90;99.90
21582;DHT22;10952;50.836;4.348;2022-08-07T05:46:49;16.90;99.90
21582;DHT22;10952;50.836;4.348;2022-08-07T05:49:18;16.90;99.90
21582;DHT22;10952;50.836;4.348;2022-08-07T05:51:46;17.00;99.90
21582;DHT22;10952;50.836;4.348;2022-08-07T05:54:12;17.10;99.90
21582;DHT22;10952;50.836;4.348;2022-08-07T05:56:39;17.20;99.90
21582;DHT22;10952;50.836;4.348;2022-08-07T05:59:10;17.20;99.90
21582;DHT22;10952;50.836;4.348;2022-08-07T06:01:38;17.20;99.90
21582;DHT22;10952;50.836;4.348;2022-08-07T06:04:06;17.20;99.90
21582;DHT22;10952;50.836;4.348;2022-08-07T06:06:33;17.30;99.90
21582;DHT22;10952;50.836;4.348;2022-08-07T06:08:59;17.20;99.90
21582;DHT22;10952;50.836;4.348;2022-08-07T06:11:25;17.20;99.90
21582;DHT22;10952;50.836;4.348;2022-08-07T06:13:51;17.30;99.90
21582;DHT22;10952;50.836;4.348;2022-08-07T06:16:20;17.30;99.90
21582;DHT22;10952;50.836;4.348;2022-08-07T06:18:47;17.40;99.90
21582;DHT22;10952;50.836;4.348;2022-08-07T06:21:14;17.50;99.90
21582;DHT22;10952;50.836;4.348;2022-08-07T06:23:40;17.60;99.90
21582;DHT22;10952;50.836;4.348;2022-08-07T06:26:06;17.60;99.90
21582;DHT22;10952;50.836;4.348;2022-08-07T06:28:47;17.70;99.90
21582;DHT22;10952;50.836;4.348;2022-08-07T06:31:14;17.70;99.90
21582;DHT22;10952;50.836;4.348;2022-08-07T06:33:40;17.70;99.90
21582;DHT22;10952;50.836;4.348;2022-08-07T06:36:06;17.70;99.90
21582;DHT22;10952;50.836;4.348;2022-08-07T06:38:33;17.70;99.90
21582;DHT22;10952;50.836;4.348;2022-08-07T06:40:59;17.60;99.90
21582;DHT22;10952;50.836;4.348;2022-08-07T06:43:28;17.60;99.90
21582;DHT22;10952;50.836;4.348;2022-08-07T06:45:56;17.70;99.90
21582;DHT22;10952;50.836;4.348;2022-08-07T06:48:22;17.80;99.90
21582;DHT22;10952;50.836;4.348;2022-08-07T06:50:48;18.00;99.90
21582;DHT22;10952;50.836;4.348;2022-08-07T06:53:14;18.10;99.90
21582;DHT22;10952;50.836;4.348;2022-08-07T06:55:43;18.00;99.90
21582;DHT22;10952;50.836;4.348;2022-08-07T06:58:10;18.10;99.90
21582;DHT22;10952;50.836;4.348;2022-08-07T07:00:39;18.00;99.90
21582;DHT22;10952;50.836;4.348;2022-08-07T07:03:06;18.10;99.90
21582;DHT22;10952;50.836;4.348;2022-08-07T07:05:32;18.00;99.90
21582;DHT22;10952;50.836;4.348;2022-08-07T07:07:58;18.20;99.90
21582;DHT22;10952;50.836;4.348;2022-08-07T07:10:31;18.30;99.90
21582;DHT22;10952;50.836;4.348;2022-08-07T07:13:15;18.30;99.90
21582;DHT22;10952;50.836;4.348;2022-08-07T07:15:50;18.40;99.90
21582;DHT22;10952;50.836;4.348;2022-08-07T07:18:22;18.40;99.90
21582;DHT22;10952;50.836;4.348;2022-08-07T07:20:56;18.40;99.90
21582;DHT22;10952;50.836;4.348;2022-08-07T07:23:24;18.40;99.90
21582;DHT22;10952;50.836;4.348;2022-08-07T07:25:53;18.40;99.90
21582;DHT22;10952;50.836;4.348;2022-08-07T07:28:23;18.50;99.90
21582;DHT22;10952;50.836;4.348;2022-08-07T07:30:56;18.60;99.90
21582;DHT22;10952;50.836;4.348;2022-08-07T07:33:22;18.70;99.90
21582;DHT22;10952;50.836;4.348;2022-08-07T07:35:51;18.70;99.90
21582;DHT22;10952;50.836;4.348;2022-08-07T07:38:18;18.80;99.90
21582;DHT22;10952;50.836;4.348;2022-08-07T07:40:46;18.90;99.90
21582;DHT22;10952;50.836;4.348;2022-08-07T07:43:14;19.00;99.90
21582;DHT22;10952;50.836;4.348;2022-08-07T07:45:40;19.10;99.90
21582;DHT22;10952;50.836;4.348;2022-08-07T07:48:09;19.00;99.90
21582;DHT22;10952;50.836;4.348;2022-08-07T07:50:38;19.00;99.90
21582;DHT22;10952;50.836;4.348;2022-08-07T07:53:06;19.10;99.90
21582;DHT22;10952;50.836;4.348;2022-08-07T07:55:33;19.10;99.90
21582;DHT22;10952;50.836;4.348;2022-08-07T07:58:00;19.30;99.90
21582;DHT22;10952;50.836;4.348;2022-08-07T08:00:28;19.40;99.90
21582;DHT22;10952;50.836;4.348;2022-08-07T08:02:58;19.40;99.90
21582;DHT22;10952;50.836;4.348;2022-08-07T08:05:24;19.30;99.90
21582;DHT22;10952;50.836;4.348;2022-08-07T08:07:49;19.40;99.90
21582;DHT22;10952;50.836;4.348;2022-08-07T08:10:16;19.40;99.90
21582;DHT22;10952;50.836;4.348;2022-08-07T08:12:44;19.50;99.90
21582;DHT22;10952;50.836;4.348;2022-08-07T08:15:11;19.70;99.90
21582;DHT22;10952;50.836;4.348;2022-08-07T08:17:36;19.80;99.90
21582;DHT22;10952;50.836;4.348;2022-08-07T08:20:08;19.80;99.90
21582;DHT22;10952;50.836;4.348;2022-08-07T08:22:38;19.80;99.90
21582;DHT22;10952;50.836;4.348;2022-08-07T08:25:27;19.80;99.90
21582;DHT22;10952;50.836;4.348;2022-08-07T08:28:18;19.80;99.90
21582;DHT22;10952;50.836;4.348;2022-08-07T08:30:45;19.80;99.90
21582;DHT22;10952;50.836;4.348;2022-08-07T08:33:14;20.00;99.90
21582;DHT22;10952;50.836;4.348;2022-08-07T08:35:46;20.00;99.90
21582;DHT22;10952;50.836;4.348;2022-08-07T08:38:14;20.10;99.90
21582;DHT22;10952;50.836;4.348;2022-08-07T08:40:45;20.30;99.90
21582;DHT22;10952;50.836;4.348;2022-08-07T08:43:39;20.30;99.90
21582;DHT22;10952;50.836;4.348;2022-08-07T08:46:16;20.30;99.90
21582;DHT22;10952;50.836;4.348;2022-08-07T08:48:50;20.20;99.90
21582;DHT22;10952;50.836;4.348;2022-08-07T08:51:30;20.30;99.90
21582;DHT22;10952;50.836;4.348;2022-08-07T08:54:07;20.50;99.90
21582;DHT22;10952;50.836;4.348;2022-08-07T08:56:45;20.60;99.90
21582;DHT22;10952;50.836;4.348;2022-08-07T08:59:46;20.70;99.90
21582;DHT22;10952;50.836;4.348;2022-08-07T09:02:30;20.80;99.90
21582;DHT22;10952;50.836;4.348;2022-08-07T09:07:48;21.00;99.90
21582;DHT22;10952;50.836;4.348;2022-08-07T09:10:59;21.10;99.90
21582;DHT22;10952;50.836;4.348;2022-08-07T09:16:18;21.20;99.90
21582;DHT22;10952;50.836;4.348;2022-08-07T09:18:55;21.10;99.90
21582;DHT22;10952;50.836;4.348;2022-08-07T09:21:32;21.20;99.90
21582;DHT22;10952;50.836;4.348;2022-08-07T09:26:59;21.40;99.90
21582;DHT22;10952;50.836;4.348;2022-08-07T09:35:19;21.30;99.90
21582;DHT22;10952;50.836;4.348;2022-08-07T09:37:56;21.30;99.90
21582;DHT22;10952;50.836;4.348;2022-08-07T09:41:22;21.40;99.90
21582;DHT22;10952;50.836;4.348;2022-08-07T09:52:05;21.60;99.90
21582;DHT22;10952;50.836;4.348;2022-08-07T09:54:43;21.80;99.90
21582;DHT22;10952;50.836;4.348;2022-08-07T10:00:15;22.10;99.90
21582;DHT22;10952;50.836;4.348;2022-08-07T10:17:47;28.30;90.80
21582;DHT22;10952;50.836;4.348;2022-08-07T10:23:22;31.90;81.40
21582;DHT22;10952;50.836;4.348;2022-08-07T10:34:04;35.50;68.10
21582;DHT22;10952;50.836;4.348;2022-08-07T11:13:50;35.90;58.80
21582;DHT22;10952;50.836;4.348;2022-08-07T11:32:17;37.30;55.80
21582;DHT22;10952;50.836;4.348;2022-08-07T11:35:10;37.50;55.20
21582;DHT22;10952;50.836;4.348;2022-08-07T11:43:22;37.50;54.40
21582;DHT22;10952;50.836;4.348;2022-08-07T11:57:18;36.30;55.30
21582;DHT22;10952;50.836;4.348;2022-08-07T12:08:08;37.00;54.40
21582;DHT22;10952;50.836;4.348;2022-08-07T12:10:48;36.90;53.20
21582;DHT22;10952;50.836;4.348;2022-08-07T12:13:36;36.40;54.00
21582;DHT22;10952;50.836;4.348;2022-08-07T12:16:12;36.30;53.90
21582;DHT22;10952;50.836;4.348;2022-08-07T12:18:47;36.20;54.00
21582;DHT22;10952;50.836;4.348;2022-08-07T12:21:36;36.30;53.50
21582;DHT22;10952;50.836;4.348;2022-08-07T12:27:09;35.10;53.70
21582;DHT22;10952;50.836;4.348;2022-08-07T12:29:53;34.50;54.70
21582;DHT22;10952;50.836;4.348;2022-08-07T12:32:29;34.60;54.30
21582;DHT22;10952;50.836;4.348;2022-08-07T12:34:57;35.00;54.40
21582;DHT22;10952;50.836;4.348;2022-08-07T12:37:25;35.20;54.10
21582;DHT22;10952;50.836;4.348;2022-08-07T12:39:53;34.40;54.60
21582;DHT22;10952;50.836;4.348;2022-08-07T12:42:23;34.30;55.40
21582;DHT22;10952;50.836;4.348;2022-08-07T12:44:50;33.80;55.70
21582;DHT22;10952;50.836;4.348;2022-08-07T12:53:39;32.80;57.20
21582;DHT22;10952;50.836;4.348;2022-08-07T12:56:13;32.40;57.80
21582;DHT22;10952;50.836;4.348;2022-08-07T12:58:45;31.50;57.70
21582;DHT22;10952;50.836;4.348;2022-08-07T13:04:37;30.80;57.70
21582;DHT22;10952;50.836;4.348;2022-08-07T13:10:22;29.60;58.60
21582;DHT22;10952;50.836;4.348;2022-08-07T13:12:53;29.00;58.70
21582;DHT22;10952;50.836;4.348;2022-08-07T13:18:02;28.30;61.10
21582;DHT22;10952;50.836;4.348;2022-08-07T13:20:50;28.20;62.40
21582;DHT22;10952;50.836;4.348;2022-08-07T13:23:24;28.30;63.30
21582;DHT22;10952;50.836;4.348;2022-08-07T13:25:53;27.60;64.80
21582;DHT22;10952;50.836;4.348;2022-08-07T13:28:26;27.20;65.70
21582;DHT22;10952;50.836;4.348;2022-08-07T13:31:06;27.00;65.80
21582;DHT22;10952;50.836;4.348;2022-08-07T13:36:08;27.10;65.80
21582;DHT22;10952;50.836;4.348;2022-08-07T13:38:48;27.30;65.50
21582;DHT22;10952;50.836;4.348;2022-08-07T13:41:41;27.40;66.40
21582;DHT22;10952;50.836;4.348;2022-08-07T13:44:09;27.60;66.60
21582;DHT22;10952;50.836;4.348;2022-08-07T13:46:38;27.70;66.30
21582;DHT22;10952;50.836;4.348;2022-08-07T13:49:06;27.90;65.20
21582;DHT22;10952;50.836;4.348;2022-08-07T13:51:35;27.90;64.80
21582;DHT22;10952;50.836;4.348;2022-08-07T13:54:13;27.90;64.60
21582;DHT22;10952;50.836;4.348;2022-08-07T13:56:42;28.00;64.30
21582;DHT22;10952;50.836;4.348;2022-08-07T13:59:16;28.10;63.50
21582;DHT22;10952;50.836;4.348;2022-08-07T14:01:51;28.10;63.80
21582;DHT22;10952;50.836;4.348;2022-08-07T14:04:18;28.10;64.00
21582;DHT22;10952;50.836;4.348;2022-08-07T14:06:47;28.20;65.10
21582;DHT22;10952;50.836;4.348;2022-08-07T14:09:25;28.00;65.30
21582;DHT22;10952;50.836;4.348;2022-08-07T14:11:53;27.80;66.00
21582;DHT22;10952;50.836;4.348;2022-08-07T14:14:27;27.80;66.00
21582;DHT22;10952;50.836;4.348;2022-08-07T14:16:57;27.70;66.10
21582;DHT22;10952;50.836;4.348;2022-08-07T14:20:02;27.70;67.00
21582;DHT22;10952;50.836;4.348;2022-08-07T14:22:31;27.70;66.80
21582;DHT22;10952;50.836;4.348;2022-08-07T14:25:05;27.80;65.90
21582;DHT22;10952;50.836;4.348;2022-08-07T14:27:37;27.70;66.60
21582;DHT22;10952;50.836;4.348;2022-08-07T14:30:09;27.40;67.50
21582;DHT22;10952;50.836;4.348;2022-08-07T14:32:42;27.50;67.70
21582;DHT22;10952;50.836;4.348;2022-08-07T14:35:21;27.60;66.90
21582;DHT22;10952;50.836;4.348;2022-08-07T14:37:51;27.70;67.20
21582;DHT22;10952;50.836;4.348;2022-08-07T14:40:21;27.90;67.30
21582;DHT22;10952;50.836;4.348;2022-08-07T14:43:00;27.90;67.30
21582;DHT22;10952;50.836;4.348;2022-08-07T14:45:39;27.80;67.40
21582;DHT22;10952;50.836;4.348;2022-08-07T14:48:09;27.70;67.70
21582;DHT22;10952;50.836;4.348;2022-08-07T14:50:49;27.60;68.10
21582;DHT22;10952;50.836;4.348;2022-08-07T14:53:17;27.60;68.60
21582;DHT22;10952;50.836;4.348;2022-08-07T14:55:44;27.90;68.40
21582;DHT22;10952;50.836;4.348;2022-08-07T14:58:12;27.90;68.50
21582;DHT22;10952;50.836;4.348;2022-08-07T15:00:48;28.00;68.00
21582;DHT22;10952;50.836;4.348;2022-08-07T15:03:23;27.30;68.40
21582;DHT22;10952;50.836;4.348;2022-08-07T15:05:50;27.00;69.30
21582;DHT22;10952;50.836;4.348;2022-08-07T15:08:26;27.00;70.00
21582;DHT22;10952;50.836;4.348;2022-08-07T15:11:19;27.00;70.20
21582;DHT22;10952;50.836;4.348;2022-08-07T15:13:51;27.30;70.10
21582;DHT22;10952;50.836;4.348;2022-08-07T15:16:23;27.40;69.20
21582;DHT22;10952;50.836;4.348;2022-08-07T15:18:52;27.70;69.00
21582;DHT22;10952;50.836;4.348;2022-08-07T15:21:32;28.00;68.70
21582;DHT22;10952;50.836;4.348;2022-08-07T15:24:06;28.20;67.20
21582;DHT22;10952;50.836;4.348;2022-08-07T15:26:41;28.00;68.10
21582;DHT22;10952;50.836;4.348;2022-08-07T15:29:09;28.00;68.10
21582;DHT22;10952;50.836;4.348;2022-08-07T15:31:35;28.20;67.90
21582;DHT22;10952;50.836;4.348;2022-08-07T15:34:02;28.10;67.70
21582;DHT22;10952;50.836;4.348;2022-08-07T15:36:29;28.20;67.30
21582;DHT22;10952;50.836;4.348;2022-08-07T15:39:04;28.10;67.60
21582;DHT22;10952;50.836;4.348;2022-08-07T15:41:31;28.20;66.80
21582;DHT22;10952;50.836;4.348;2022-08-07T15:44:09;28.30;66.60
21582;DHT22;10952;50.836;4.348;2022-08-07T15:46:36;28.60;66.20
21582;DHT22;10952;50.836;4.348;2022-08-07T15:49:09;28.70;65.70
21582;DHT22;10952;50.836;4.348;2022-08-07T15:51:36;29.20;65.20
21582;DHT22;10952;50.836;4.348;2022-08-07T15:54:05;29.40;65.00
21582;DHT22;10952;50.836;4.348;2022-08-07T15:56:34;29.90;64.20
21582;DHT22;10952;50.836;4.348;2022-08-07T15:59:03;30.00;63.60
21582;DHT22;10952;50.836;4.348;2022-08-07T16:01:35;29.90;63.30
21582;DHT22;10952;50.836;4.348;2022-08-07T16:04:05;29.50;64.20
21582;DHT22;10952;50.836;4.348;2022-08-07T16:09:25;29.10;65.50
21582;DHT22;10952;50.836;4.348;2022-08-07T16:11:54;29.00;65.20
21582;DHT22;10952;50.836;4.348;2022-08-07T16:22:42;28.40;66.30
21582;DHT22;10952;50.836;4.348;2022-08-07T16:28:22;27.90;67.90
21582;DHT22;10952;50.836;4.348;2022-08-07T16:33:36;28.60;66.20
21582;DHT22;10952;50.836;4.348;2022-08-07T16:38:43;29.10;66.30
21582;DHT22;10952;50.836;4.348;2022-08-07T16:44:14;29.60;65.90
21582;DHT22;10952;50.836;4.348;2022-08-07T16:46:53;29.00;66.70
21582;DHT22;10952;50.836;4.348;2022-08-07T16:52:17;27.90;69.10
21582;DHT22;10952;50.836;4.348;2022-08-07T16:55:00;27.80;69.80
21582;DHT22;10952;50.836;4.348;2022-08-07T16:58:32;27.20;70.80
21582;DHT22;10952;50.836;4.348;2022-08-07T17:09:02;26.40;74.10
21582;DHT22;10952;50.836;4.348;2022-08-07T17:11:47;26.30;74.20
21582;DHT22;10952;50.836;4.348;2022-08-07T17:20:00;26.80;74.40
21582;DHT22;10952;50.836;4.348;2022-08-07T17:22:36;26.60;75.30
21582;DHT22;10952;50.836;4.348;2022-08-07T17:25:18;26.30;76.10
21582;DHT22;10952;50.836;4.348;2022-08-07T17:28:02;26.10;76.70
21582;DHT22;10952;50.836;4.348;2022-08-07T17:30:38;25.80;77.20
21582;DHT22;10952;50.836;4.348;2022-08-07T17:33:23;25.60;77.80
21582;DHT22;10952;50.836;4.348;2022-08-07T17:36:11;25.60;78.40
21582;DHT22;10952;50.836;4.348;2022-08-07T17:39:05;25.50;78.50
21582;DHT22;10952;50.836;4.348;2022-08-07T17:41:54;25.60;78.60
21582;DHT22;10952;50.836;4.348;2022-08-07T17:44:24;25.80;78.70
21582;DHT22;10952;50.836;4.348;2022-08-07T17:49:29;25.80;78.90
21582;DHT22;10952;50.836;4.348;2022-08-07T17:52:23;25.70;78.70
21582;DHT22;10952;50.836;4.348;2022-08-07T17:55:00;25.60;78.80
21582;DHT22;10952;50.836;4.348;2022-08-07T17:57:48;25.60;79.10
21582;DHT22;10952;50.836;4.348;2022-08-07T18:00:20;25.50;79.30
21582;DHT22;10952;50.836;4.348;2022-08-07T18:03:09;25.20;80.10
21582;DHT22;10952;50.836;4.348;2022-08-07T18:05:51;25.10;80.60
21582;DHT22;10952;50.836;4.348;2022-08-07T18:11:23;24.80;81.80
21582;DHT22;10952;50.836;4.348;2022-08-07T18:19:21;24.80;82.00
21582;DHT22;10952;50.836;4.348;2022-08-07T18:21:59;24.70;82.20
21582;DHT22;10952;50.836;4.348;2022-08-07T18:24:45;24.60;82.50
21582;DHT22;10952;50.836;4.348;2022-08-07T18:30:05;24.40;83.20
21582;DHT22;10952;50.836;4.348;2022-08-07T18:47:02;24.00;85.10
21582;DHT22;10952;50.836;4.348;2022-08-07T18:52:06;23.30;87.40
21582;DHT22;10952;50.836;4.348;2022-08-07T18:54:47;23.20;87.70
21582;DHT22;10952;50.836;4.348;2022-08-07T18:57:31;23.30;87.70
21582;DHT22;10952;50.836;4.348;2022-08-07T19:00:08;23.30;87.90
21582;DHT22;10952;50.836;4.348;2022-08-07T19:02:59;23.30;88.20
21582;DHT22;10952;50.836;4.348;2022-08-07T19:05:40;23.30;88.20
21582;DHT22;10952;50.836;4.348;2022-08-07T19:08:16;23.20;88.90
21582;DHT22;10952;50.836;4.348;2022-08-07T19:10:49;23.10;89.20
21582;DHT22;10952;50.836;4.348;2022-08-07T19:13:34;23.10;89.70
21582;DHT22;10952;50.836;4.348;2022-08-07T19:18:58;23.00;90.20
21582;DHT22;10952;50.836;4.348;2022-08-07T19:21:42;23.00;90.00
21582;DHT22;10952;50.836;4.348;2022-08-07T19:24:39;23.10;89.90
21582;DHT22;10952;50.836;4.348;2022-08-07T19:27:09;23.00;90.10
21582;DHT22;10952;50.836;4.348;2022-08-07T19:29:40;22.90;90.40
21582;DHT22;10952;50.836;4.348;2022-08-07T19:32:07;22.80;90.50
21582;DHT22;10952;50.836;4.348;2022-08-07T19:34:34;22.80;90.60
21582;DHT22;10952;50.836;4.348;2022-08-07T19:37:01;22.60;91.00
21582;DHT22;10952;50.836;4.348;2022-08-07T19:39:30;22.60;91.10
21582;DHT22;10952;50.836;4.348;2022-08-07T19:41:58;22.50;91.30
21582;DHT22;10952;50.836;4.348;2022-08-07T19:44:28;22.40;91.50
21582;DHT22;10952;50.836;4.348;2022-08-07T19:47:09;22.50;91.50
21582;DHT22;10952;50.836;4.348;2022-08-07T19:49:46;22.50;91.70
21582;DHT22;10952;50.836;4.348;2022-08-07T19:52:16;22.50;91.70
21582;DHT22;10952;50.836;4.348;2022-08-07T19:54:44;22.30;92.00
21582;DHT22;10952;50.836;4.348;2022-08-07T19:57:20;22.20;92.10
21582;DHT22;10952;50.836;4.348;2022-08-07T19:59:52;22.20;92.30